createdAt,value
2023-03-15T00:13:47.613Z,76.53
2023-03-15T00:17:35.662Z,76.74
2023-03-15T00:21:23.186Z,76.87
2023-03-15T00:25:11.006Z,77.63
2023-03-15T00:28:58.458Z,78.06
2023-03-15T00:48:14.427Z,77.75
2023-03-15T00:52:03.499Z,77.64
2023-03-15T00:55:52.960Z,77.53
2023-03-15T00:59:31.594Z,77.71
2023-03-15T01:03:20.938Z,77.59
2023-03-15T01:07:00.291Z,77.92
2023-03-15T01:10:49.924Z,77.77
2023-03-15T01:14:09.626Z,77.46
2023-03-15T01:21:50.055Z,77.09
2023-03-15T01:40:26.795Z,77.45
2023-03-15T01:44:18.647Z,77.23
2023-03-15T01:48:07.143Z,77.10
2023-03-15T01:51:59.056Z,77.04
2023-03-15T01:55:49.020Z,76.90
2023-03-15T02:25:24.504Z,76.79
2023-03-15T02:29:13.669Z,76.73
2023-03-15T02:33:03.876Z,76.62
2023-03-15T02:45:12.678Z,76.52
2023-03-15T02:49:01.926Z,76.73
2023-03-15T02:52:50.886Z,76.57
2023-03-15T02:56:33.610Z,76.42
2023-03-15T03:00:22.645Z,76.41
2023-03-15T03:04:11.237Z,76.41
2023-03-15T03:07:50.442Z,76.28
2023-03-15T03:11:39.868Z,76.31
2023-03-15T03:15:21.988Z,76.50
2023-03-15T03:19:11.605Z,76.23
2023-03-15T03:23:03.419Z,76.18
2023-03-15T03:26:56.435Z,76.28
2023-03-15T03:30:47.489Z,76.50
2023-03-15T03:34:35.540Z,76.36
2023-03-15T03:38:16.100Z,76.14
2023-03-15T03:42:07.141Z,76.07
2023-03-15T03:45:55.153Z,76.06
2023-03-15T04:01:03.280Z,75.77
2023-03-15T04:04:52.565Z,75.65
2023-03-15T04:08:41.617Z,75.44
2023-03-15T04:12:31.105Z,75.37
2023-03-15T04:16:21.352Z,75.18
2023-03-15T04:20:36.367Z,74.89
2023-03-15T04:40:00.740Z,75.19
2023-03-15T04:43:46.888Z,75.19
2023-03-15T04:47:51.185Z,75.19
2023-03-15T04:51:40.724Z,75.15
2023-03-15T05:10:20.997Z,75.16
2023-03-15T05:13:20.865Z,75.25
2023-03-15T05:17:03.435Z,75.19
2023-03-15T05:20:54.144Z,75.17
2023-03-15T05:24:18.275Z,75.12
2023-03-15T05:28:06.152Z,75.13
2023-03-15T05:50:22.814Z,74.89
2023-03-15T05:53:49.381Z,75.09
2023-03-15T05:57:46.449Z,75.10
2023-03-15T06:01:25.779Z,75.09
2023-03-15T06:05:20.012Z,74.91
2023-03-15T06:08:09.531Z,74.81
2023-03-15T06:11:20.334Z,74.74
2023-03-15T06:14:50.738Z,74.71
2023-03-15T06:18:32.710Z,74.69
2023-03-15T06:22:08.992Z,74.74
2023-03-15T06:25:46.281Z,74.39
2023-03-15T06:29:33.759Z,74.63
2023-03-15T06:32:46.874Z,74.61
2023-03-15T06:36:14.682Z,74.61
2023-03-15T06:39:33.955Z,74.53
2023-03-15T06:42:53.868Z,74.49
2023-03-15T06:46:24.775Z,74.30
2023-03-15T06:49:17.776Z,74.08
2023-03-15T06:52:12.595Z,73.95
2023-03-15T06:55:19.581Z,73.82
2023-03-15T06:59:07.737Z,73.76
2023-03-15T07:02:48.520Z,73.58
2023-03-15T07:06:16.292Z,73.62
2023-03-15T07:09:57.909Z,73.35
2023-03-15T07:13:25.780Z,73.01
2023-03-15T07:16:33.056Z,72.89
2023-03-15T07:19:28.950Z,73.01
2023-03-15T07:22:02.358Z,72.80
2023-03-15T07:25:12.449Z,72.70
2023-03-15T07:28:56.423Z,73.00
2023-03-15T07:32:24.587Z,72.94
2023-03-15T07:35:00.046Z,72.59
2023-03-15T07:38:13.481Z,72.69
2023-03-15T07:41:32.177Z,72.71
2023-03-15T07:44:49.077Z,72.61
2023-03-15T07:47:56.704Z,72.48
2023-03-15T07:51:03.358Z,72.39
2023-03-15T07:54:00.044Z,72.41
2023-03-15T07:57:28.952Z,72.22
2023-03-15T08:01:16.809Z,72.12
2023-03-15T08:04:57.823Z,71.18
2023-03-15T08:08:38.026Z,71.02
2023-03-15T08:12:21.728Z,71.03
2023-03-15T08:16:02.499Z,70.55
2023-03-15T08:19:50.577Z,70.61
2023-03-15T08:23:20.724Z,70.70
2023-03-15T08:27:08.638Z,70.32
2023-03-15T08:30:56.252Z,69.63
2023-03-15T08:34:42.807Z,69.67
2023-03-15T08:38:13.505Z,69.70
2023-03-15T08:41:45.084Z,69.19
2023-03-15T08:45:37.420Z,68.96
2023-03-15T08:49:20.926Z,68.95
2023-03-15T08:53:03.004Z,68.72
2023-03-15T08:56:50.888Z,68.71
2023-03-15T09:00:41.107Z,68.59
2023-03-15T09:03:55.079Z,68.25
2023-03-15T09:07:42.767Z,68.09
2023-03-15T09:11:30.658Z,67.56
2023-03-15T09:15:00.811Z,67.40
2023-03-15T09:22:23.910Z,67.42
2023-03-15T09:26:13.206Z,67.45
2023-03-15T09:29:42.125Z,67.64
2023-03-15T09:33:49.439Z,66.47
2023-03-15T09:37:38.689Z,67.05
2023-03-15T09:40:47.369Z,67.03
2023-03-15T09:44:36.393Z,66.70
2023-03-15T09:48:27.937Z,66.76
2023-03-15T09:52:08.835Z,66.56
2023-03-15T09:56:08.859Z,66.63
2023-03-15T10:00:04.465Z,66.47
2023-03-15T10:19:26.800Z,63.51
2023-03-15T10:23:13.418Z,64.03
2023-03-15T10:30:37.401Z,64.28
2023-03-15T10:34:14.785Z,64.44
2023-03-15T10:37:35.819Z,63.42
2023-03-15T10:41:40.162Z,63.59
2023-03-15T10:45:29.145Z,63.58
2023-03-15T10:49:19.139Z,63.45
2023-03-15T10:53:14.144Z,62.73
2023-03-15T11:08:41.517Z,61.59
2023-03-15T11:12:39.662Z,61.48
2023-03-15T11:16:01.873Z,61.20
2023-03-15T11:19:17.966Z,61.32
2023-03-15T11:23:07.527Z,60.22
2023-03-15T11:26:53.658Z,59.59
2023-03-15T11:30:42.988Z,59.66
2023-03-15T11:34:31.378Z,60.15
2023-03-15T11:38:22.543Z,59.60
2023-03-15T11:53:15.441Z,58.88
2023-03-15T11:57:25.888Z,56.96
2023-03-15T11:59:57.550Z,58.22
2023-03-15T12:03:30.022Z,58.09
2023-03-15T12:18:50.241Z,55.88
2023-03-15T12:22:25.291Z,56.58
2023-03-15T12:26:17.236Z,56.10
2023-03-15T12:29:50.334Z,56.53
2023-03-15T12:33:41.084Z,56.47
2023-03-15T12:37:13.869Z,56.20
2023-03-15T12:52:03.734Z,53.96
2023-03-15T12:55:59.591Z,54.75
2023-03-15T13:15:05.478Z,56.32
2023-03-15T13:18:53.458Z,56.30
2023-03-15T13:22:55.431Z,56.38
2023-03-15T13:26:52.875Z,56.25
2023-03-15T13:31:31.589Z,56.08
2023-03-15T13:35:16.901Z,56.83
2023-03-15T13:39:08.708Z,57.05
2023-03-15T13:43:01.525Z,57.17
2023-03-15T14:12:49.770Z,55.40
2023-03-15T14:16:21.576Z,55.56
2023-03-15T14:19:55.150Z,55.84
2023-03-15T14:23:43.616Z,56.35
2023-03-15T14:39:04.377Z,57.91
2023-03-15T14:42:40.696Z,57.64
2023-03-15T14:46:09.865Z,57.68
2023-03-15T14:49:54.199Z,57.54
2023-03-15T14:53:31.844Z,57.53
2023-03-15T14:56:22.125Z,57.58
2023-03-15T14:59:34.893Z,57.74
2023-03-15T15:03:22.075Z,57.51
2023-03-15T15:14:43.956Z,56.55
2023-03-15T15:18:08.572Z,56.76
2023-03-15T15:21:57.602Z,56.34
2023-03-15T15:25:35.182Z,56.06
2023-03-15T15:28:59.258Z,56.10
2023-03-15T15:32:47.321Z,56.54
2023-03-15T15:36:32.422Z,56.55
2023-03-15T15:40:04.849Z,55.88
2023-03-15T15:43:54.011Z,56.13
2023-03-15T15:47:13.084Z,56.17
2023-03-15T15:51:02.126Z,56.30
2023-03-15T15:53:59.476Z,56.41
2023-03-15T15:56:56.499Z,56.14
2023-03-15T15:59:47.125Z,56.39
2023-03-15T16:03:15.443Z,56.66
2023-03-15T16:10:36.027Z,57.03
2023-03-15T16:14:04.308Z,57.09
2023-03-15T16:17:37.119Z,57.26
2023-03-15T16:24:36.495Z,57.59
2023-03-15T16:28:18.344Z,57.73
2023-03-15T16:31:27.188Z,57.98
2023-03-15T16:35:17.910Z,58.51
2023-03-15T16:38:47.438Z,58.78
2023-03-15T16:42:16.832Z,58.97
2023-03-15T16:45:55.435Z,59.94
2023-03-15T16:49:25.551Z,59.97
2023-03-15T17:15:32.769Z,64.11
2023-03-15T17:19:14.520Z,64.49
2023-03-15T17:22:26.768Z,65.24
2023-03-15T17:25:47.973Z,65.88
2023-03-15T17:29:36.979Z,66.13
2023-03-15T17:33:24.653Z,66.03
2023-03-15T17:36:54.005Z,65.93
2023-03-15T17:40:43.854Z,65.86
2023-03-15T17:44:15.772Z,66.04
2023-03-15T17:47:54.391Z,66.70
2023-03-15T17:51:13.597Z,66.73
2023-03-15T17:54:46.591Z,66.93
2023-03-15T17:58:28.876Z,67.21
2023-03-15T18:02:18.521Z,67.27
2023-03-15T18:06:14.981Z,67.43
2023-03-15T18:10:02.424Z,67.87
2023-03-15T18:13:09.701Z,68.34
2023-03-15T18:16:49.286Z,69.11
2023-03-15T18:28:36.024Z,69.68
2023-03-15T18:32:25.590Z,69.67
2023-03-15T18:36:08.248Z,70.01
2023-03-15T18:39:33.377Z,70.84
2023-03-15T18:43:22.291Z,71.49
2023-03-15T18:47:01.680Z,71.44
2023-03-15T19:09:34.003Z,72.95
2023-03-15T19:13:23.346Z,72.76
2023-03-15T19:17:12.367Z,73.15
2023-03-15T19:21:01.876Z,73.02
2023-03-15T19:24:51.637Z,73.02
2023-03-15T19:28:29.697Z,73.27
2023-03-15T19:32:13.790Z,73.40
2023-03-15T19:35:54.155Z,73.43
2023-03-15T19:57:37.955Z,73.74
2023-03-15T20:01:09.352Z,73.99
2023-03-15T20:04:57.316Z,74.52
2023-03-15T20:08:46.983Z,74.87
2023-03-15T20:12:37.158Z,75.27
2023-03-15T20:15:46.282Z,75.01
2023-03-15T20:19:30.318Z,74.59
2023-03-15T20:22:27.533Z,74.84
2023-03-15T20:25:06.923Z,75.25
2023-03-15T20:28:10.691Z,75.47
2023-03-15T20:31:05.647Z,76.02
2023-03-15T20:34:23.208Z,76.60
2023-03-15T20:36:53.813Z,76.72
2023-03-15T20:40:21.677Z,76.51
2023-03-15T20:44:11.041Z,76.41
2023-03-15T20:48:00.275Z,76.25
2023-03-15T20:51:49.134Z,75.99
2023-03-15T20:55:38.423Z,76.16
2023-03-15T20:59:26.147Z,75.32
2023-03-15T21:03:14.039Z,74.64
2023-03-15T21:06:42.654Z,74.48
2023-03-15T21:10:01.878Z,74.56
2023-03-15T21:13:11.214Z,74.31
2023-03-15T21:16:26.430Z,74.88
2023-03-15T21:20:15.794Z,75.13
2023-03-15T21:23:45.662Z,75.59
2023-03-15T21:27:05.515Z,75.71
2023-03-15T21:30:37.561Z,76.02
2023-03-15T21:33:53.098Z,76.04
2023-03-15T21:37:21.128Z,76.11
2023-03-15T21:41:13.548Z,75.77
2023-03-15T21:45:02.578Z,75.88
2023-03-15T21:48:51.802Z,76.08
2023-03-15T21:55:27.637Z,75.33
2023-03-15T22:10:38.141Z,74.93
2023-03-15T22:14:27.355Z,74.50
2023-03-15T22:18:15.072Z,74.56
2023-03-15T22:22:04.497Z,74.60
2023-03-15T22:25:54.846Z,74.37
2023-03-15T22:38:04.496Z,74.26
2023-03-15T22:41:31.972Z,74.24
2023-03-15T22:45:19.608Z,74.34
2023-03-15T22:49:07.188Z,74.39
2023-03-15T22:52:47.572Z,73.68
2023-03-15T22:56:17.706Z,73.61
2023-03-15T23:00:07.006Z,73.69
2023-03-15T23:03:56.012Z,73.37
2023-03-15T23:07:38.146Z,73.69
2023-03-15T23:11:20.983Z,73.39
2023-03-15T23:23:14.336Z,73.74
2023-03-15T23:27:03.686Z,73.92
2023-03-15T23:30:35.733Z,74.01
2023-03-15T23:42:27.852Z,74.29
2023-03-15T23:46:10.485Z,74.28
2023-03-15T23:49:59.677Z,74.27
2023-03-15T23:53:30.126Z,74.64
